Time;durP1;ratioP1;P1;durP2;ratioP2;P2;SDS_P1;SDS_P2;PMS_P1;PMS_P2;Temp;Humidity;BMP_temperature;BMP_pressure;BME280_temperature;BME280_humidity;BME280_pressure;Samples;Min_cycle;Max_cycle;Signal;HPM_P1;HPM_P2
2023/11/13 00:01:49;;;;;;;;;;;7.00;99.90;;;6.39;100.00;97125.03;5037045;28;1658;-68
2023/11/13 00:04:16;;;;;;;;;;;7.10;99.90;;;6.44;100.00;97126.56;5037506;28;1982;-67
2023/11/13 00:06:43;;;;;;;;;;;7.10;99.90;;;6.41;100.00;97107.75;5039113;28;1836;-69
2023/11/13 00:09:10;;;;;;;;;;;7.10;99.90;;;6.40;100.00;97091.47;5039745;28;1884;-70
2023/11/13 00:11:37;;;;;;;;;;;7.10;99.90;;;6.37;100.00;97103.63;5038343;28;1995;-67
2023/11/13 00:14:04;;;;;;;;;;;7.10;99.90;;;6.44;100.00;97087.88;5037712;28;2039;-67
2023/11/13 00:16:31;;;;;;;;;;;7.10;99.90;;;6.42;100.00;97092.25;5039613;28;2025;-67
2023/11/13 00:18:58;;;;;;;;;;;7.10;99.90;;;6.49;100.00;97090.31;5039110;28;2156;-70
2023/11/13 00:21:25;;;;;;;;;;;7.10;99.90;;;6.48;100.00;97083.47;5039774;28;1812;-68
2023/11/13 00:23:52;;;;;;;;;;;7.10;99.90;;;6.55;100.00;97082.38;5039036;28;1848;-69
2023/11/13 00:26:19;;;;;;;;;;;7.20;99.90;;;6.47;100.00;97074.88;5036873;28;1809;-67
2023/11/13 00:28:46;;;;;;;;;;;7.20;99.90;;;6.54;100.00;97067.78;5035207;28;1732;-69
2023/11/13 00:31:13;;;;;;;;;;;7.20;99.90;;;6.58;100.00;97059.06;5036710;28;1790;-67
2023/11/13 00:33:41;;;;;;;;;;;7.20;99.90;;;6.56;100.00;97057.44;5036134;28;1717;-67
2023/11/13 00:36:08;;;;;;;;;;;7.20;99.90;;;6.64;100.00;97063.16;5037346;28;1938;-67
2023/11/13 00:38:35;;;;;;;;;;;7.30;99.90;;;6.60;100.00;97067.56;5039402;28;1906;-69
2023/11/13 00:41:02;;;;;;;;;;;7.30;99.90;;;6.61;100.00;97068.41;5040749;28;1795;-69
2023/11/13 00:43:29;;;;;;;;;;;7.30;99.90;;;6.69;100.00;97077.56;5038196;28;1592;-69
2023/11/13 00:45:56;;;;;;;;;;;7.30;99.90;;;6.69;100.00;97075.00;5037559;28;1605;-69
2023/11/13 00:48:23;;;;;;;;;;;7.30;99.90;;;6.75;100.00;97084.28;5033719;28;1893;-68
2023/11/13 00:50:50;;;;;;;;;;;7.30;99.90;;;6.72;100.00;97081.78;5037384;28;1595;-68
2023/11/13 00:53:17;;;;;;;;;;;7.30;99.90;;;6.80;100.00;97071.22;5035838;28;1742;-69
2023/11/13 00:55:44;;;;;;;;;;;7.40;99.90;;;6.79;100.00;97065.19;5034420;28;1576;-68
2023/11/13 00:58:11;;;;;;;;;;;7.40;99.90;;;6.82;100.00;97056.50;5038763;28;1895;-69
2023/11/13 01:00:38;;;;;;;;;;;7.40;99.90;;;6.93;100.00;97053.53;5022432;28;1886;-68
2023/11/13 01:03:05;;;;;;;;;;;7.40;99.90;;;6.97;100.00;97050.78;5034639;28;1858;-69
2023/11/13 01:05:33;;;;;;;;;;;7.50;99.90;;;6.91;100.00;97049.28;5036731;28;1557;-69
2023/11/13 01:08:01;;;;;;;;;;;7.50;99.90;;;6.97;100.00;97042.22;5037941;28;1577;-68
2023/11/13 01:10:27;;;;;;;;;;;7.50;99.90;;;6.98;100.00;97034.41;5037871;28;1603;-68
2023/11/13 01:12:54;;;;;;;;;;;7.50;99.90;;;7.02;100.00;97040.28;5040168;28;1661;-68
2023/11/13 01:15:22;;;;;;;;;;;7.50;99.90;;;7.01;100.00;97041.19;5039237;28;1540;-68
2023/11/13 01:17:49;;;;;;;;;;;7.60;99.90;;;7.13;100.00;97043.31;5040353;28;1910;-69
2023/11/13 01:20:18;;;;;;;;;;;7.60;99.90;;;7.00;100.00;97045.53;5038037;28;1369;-69
2023/11/13 01:22:45;;;;;;;;;;;7.70;99.90;;;7.12;100.00;97033.91;5037462;28;1625;-69
2023/11/13 01:25:12;;;;;;;;;;;7.70;99.90;;;7.18;100.00;97035.41;5039544;28;1523;-68
2023/11/13 01:27:39;;;;;;;;;;;7.70;99.90;;;7.27;100.00;97037.63;5040889;28;1634;-69
2023/11/13 01:30:08;;;;;;;;;;;7.70;99.90;;;7.32;100.00;97040.88;5036858;28;1623;-68
2023/11/13 01:32:35;;;;;;;;;;;7.70;99.90;;;7.36;100.00;97041.59;5037901;28;1817;-67
2023/11/13 01:35:03;;;;;;;;;;;7.80;99.90;;;7.40;100.00;97043.19;5038194;28;1542;-68
2023/11/13 01:37:30;;;;;;;;;;;7.80;99.90;;;7.52;100.00;97037.53;5036654;28;1967;-68
2023/11/13 01:39:57;;;;;;;;;;;7.90;99.90;;;7.53;100.00;97034.91;5038396;28;2165;-67
2023/11/13 01:42:24;;;;;;;;;;;7.90;99.90;;;7.50;100.00;97021.25;5036590;28;1540;-67
2023/11/13 01:44:51;;;;;;;;;;;8.00;99.90;;;7.44;100.00;97017.19;5038521;28;1620;-67
2023/11/13 01:47:18;;;;;;;;;;;8.00;99.90;;;7.65;100.00;97018.06;5039907;28;1567;-68
2023/11/13 01:49:45;;;;;;;;;;;8.00;99.90;;;7.58;100.00;97019.22;5036301;28;1559;-67
2023/11/13 01:52:13;;;;;;;;;;;8.00;99.90;;;7.50;100.00;97011.78;5037887;28;1557;-68
2023/11/13 01:54:41;;;;;;;;;;;8.00;99.90;;;7.67;100.00;97007.69;5042917;28;1531;-68
2023/11/13 01:57:09;;;;;;;;;;;8.10;99.90;;;7.80;100.00;96995.97;5042712;28;1988;-68
2023/11/13 01:59:38;;;;;;;;;;;8.10;99.90;;;7.79;100.00;96996.84;5029804;28;1653;-68
2023/11/13 02:02:05;;;;;;;;;;;;;;;7.92;100.00;96997.19;5042089;28;1634;-67
2023/11/13 02:04:33;;;;;;;;;;;8.30;99.90;;;7.82;100.00;96981.22;5043083;28;1541;-67
2023/11/13 02:07:00;;;;;;;;;;;8.40;99.90;;;7.98;100.00;96978.84;5042294;28;1703;-67
2023/11/13 02:09:28;;;;;;;;;;;8.40;99.90;;;8.00;100.00;96986.53;5041617;28;1579;-67
2023/11/13 02:11:55;;;;;;;;;;;8.40;99.90;;;7.93;100.00;96976.44;5039761;28;1695;-68
2023/11/13 02:14:22;;;;;;;;;;;8.40;99.90;;;8.00;100.00;96969.28;5037884;28;1602;-67
2023/11/13 02:16:49;;;;;;;;;;;8.50;99.90;;;8.05;100.00;96971.66;5041112;28;1648;-67
2023/11/13 02:19:16;;;;;;;;;;;8.60;99.90;;;8.00;100.00;96971.03;5040768;28;1958;-67
2023/11/13 02:21:43;;;;;;;;;;;8.60;99.90;;;7.99;100.00;96977.94;5041871;28;1578;-67
2023/11/13 02:24:12;;;;;;;;;;;8.60;99.90;;;7.94;100.00;96972.97;5042602;28;1642;-67
2023/11/13 02:26:39;;;;;;;;;;;8.60;99.90;;;7.97;100.00;96970.25;5041158;28;1677;-68
2023/11/13 02:29:06;;;;;;;;;;;8.60;99.90;;;7.97;100.00;96972.81;5039234;28;1539;-67
2023/11/13 02:31:32;;;;;;;;;;;8.70;99.90;;;7.99;100.00;96975.34;5045245;28;1562;-67
2023/11/13 02:33:59;;;;;;;;;;;8.70;99.90;;;8.06;100.00;96981.13;5041978;28;1717;-67
2023/11/13 02:36:26;;;;;;;;;;;8.60;99.90;;;8.05;100.00;96979.41;5039869;28;1615;-67
2023/11/13 02:38:53;;;;;;;;;;;8.60;99.90;;;8.10;100.00;96988.69;5025332;28;1938;-68
2023/11/13 02:41:21;;;;;;;;;;;8.60;99.90;;;8.08;100.00;96989.66;5041086;28;1782;-67
2023/11/13 02:43:48;;;;;;;;;;;8.70;99.90;;;8.19;100.00;96977.09;5042408;28;1618;-67
2023/11/13 02:46:15;;;;;;;;;;;8.80;99.90;;;8.14;100.00;96966.09;5039959;28;1586;-68
2023/11/13 02:48:42;;;;;;;;;;;8.80;99.90;;;8.30;100.00;96964.56;5042430;28;1544;-67
2023/11/13 02:51:08;;;;;;;;;;;8.80;99.90;;;8.45;100.00;96967.41;5041920;28;1653;-67
2023/11/13 02:53:35;;;;;;;;;;;8.90;99.90;;;8.45;100.00;96960.50;5040520;28;1623;-67
2023/11/13 02:56:02;;;;;;;;;;;8.90;99.90;;;8.47;100.00;96963.84;5044463;28;1642;-68
2023/11/13 02:58:29;;;;;;;;;;;9.00;99.90;;;8.59;100.00;96958.13;5042765;28;1898;-67
2023/11/13 03:00:56;;;;;;;;;;;9.10;99.90;;;8.71;100.00;96972.28;5041996;28;1968;-67
2023/11/13 03:03:25;;;;;;;;;;;9.20;99.90;;;8.79;100.00;96975.34;5044083;28;1580;-67
2023/11/13 03:05:52;;;;;;;;;;;9.30;99.90;;;8.79;100.00;96972.75;5038207;28;1573;-67
2023/11/13 03:08:19;;;;;;;;;;;9.30;99.90;;;8.97;100.00;96985.78;5040062;28;1543;-67
2023/11/13 03:10:46;;;;;;;;;;;9.40;99.90;;;9.04;100.00;96988.94;5041375;28;1627;-67
2023/11/13 03:13:13;;;;;;;;;;;9.50;99.90;;;9.14;100.00;96997.94;5041620;28;1571;-67
2023/11/13 03:15:40;;;;;;;;;;;9.60;99.90;;;9.24;100.00;97001.81;5043646;28;1539;-67
2023/11/13 03:18:11;;;;;;;;;;;9.60;99.90;;;9.29;100.00;96996.41;5039448;28;1926;-67
2023/11/13 03:20:38;;;;;;;;;;;9.70;99.90;;;9.36;100.00;97002.97;5043251;28;1683;-67
2023/11/13 03:23:05;;;;;;;;;;;9.70;99.90;;;9.41;100.00;96998.41;5039535;28;1544;-68
2023/11/13 03:25:32;;;;;;;;;;;9.80;99.90;;;9.47;100.00;96998.13;5038034;28;1972;-68
2023/11/13 03:27:59;;;;;;;;;;;9.90;99.90;;;9.43;100.00;97004.34;5041299;28;1763;-68
2023/11/13 03:30:27;;;;;;;;;;;9.90;99.90;;;9.56;100.00;97002.03;5040440;28;1553;-68
2023/11/13 03:32:54;;;;;;;;;;;10.00;99.90;;;9.47;100.00;96995.53;5042672;28;1605;-67
2023/11/13 03:35:21;;;;;;;;;;;10.00;99.90;;;9.59;100.00;97013.06;5039579;28;1603;-69
2023/11/13 03:37:48;;;;;;;;;;;10.00;99.90;;;9.57;100.00;97007.13;5038541;28;1882;-68
2023/11/13 03:40:15;;;;;;;;;;;10.00;99.90;;;9.48;100.00;97001.56;5040685;28;1560;-68
2023/11/13 03:42:42;;;;;;;;;;;10.00;99.90;;;9.64;100.00;96998.13;5037897;28;1567;-67
2023/11/13 03:45:09;;;;;;;;;;;10.00;99.90;;;9.67;100.00;97004.09;5040453;28;1622;-67
2023/11/13 03:47:38;;;;;;;;;;;10.10;99.90;;;9.72;100.00;97015.09;5035582;28;1570;-67
2023/11/13 03:50:06;;;;;;;;;;;10.10;99.90;;;9.72;100.00;97004.75;5042264;28;1514;-69
2023/11/13 03:52:34;;;;;;;;;;;10.20;99.90;;;9.71;100.00;97008.22;5042377;28;1573;-67
2023/11/13 03:55:01;;;;;;;;;;;10.10;99.90;;;9.69;100.00;97003.09;5039509;28;1569;-67
2023/11/13 03:57:29;;;;;;;;;;;10.20;99.90;;;9.71;100.00;97034.97;5037633;28;1923;-67
2023/11/13 03:59:56;;;;;;;;;;;10.20;99.90;;;9.68;100.00;97008.38;5041627;28;1552;-67
2023/11/13 04:02:23;;;;;;;;;;;10.20;99.90;;;9.73;100.00;97016.75;5041650;28;1667;-67
2023/11/13 04:04:50;;;;;;;;;;;10.20;99.90;;;9.74;100.00;97019.28;5039399;28;1814;-68
2023/11/13 04:07:20;;;;;;;;;;;10.20;99.90;;;9.74;100.00;97011.53;5041336;28;1612;-67
2023/11/13 04:09:47;;;;;;;;;;;10.20;99.90;;;9.70;100.00;97024.69;5038586;28;1762;-67
2023/11/13 04:12:13;;;;;;;;;;;10.20;99.90;;;9.73;100.00;97021.94;5040201;28;1957;-68
2023/11/13 04:14:40;;;;;;;;;;;10.30;99.90;;;9.84;100.00;97045.59;5044610;28;1457;-66
2023/11/13 04:17:08;;;;;;;;;;;10.30;99.90;;;9.90;100.00;97047.91;5041217;28;1550;-67
2023/11/13 04:19:35;;;;;;;;;;;10.20;99.90;;;9.78;100.00;97046.75;5040759;28;1985;-67
2023/11/13 04:22:02;;;;;;;;;;;10.30;99.90;;;9.86;100.00;97069.69;5039089;28;1719;-67
2023/11/13 04:24:29;;;;;;;;;;;10.30;99.90;;;9.81;100.00;97063.91;5040168;28;1753;-67
2023/11/13 04:26:56;;;;;;;;;;;10.30;99.90;;;9.87;100.00;97065.34;5040592;28;1624;-67
2023/11/13 04:29:22;;;;;;;;;;;10.30;99.90;;;9.83;100.00;97064.66;5039501;28;1553;-67
2023/11/13 04:31:49;;;;;;;;;;;10.30;99.90;;;9.93;100.00;97076.25;5040358;28;1561;-67
2023/11/13 04:34:16;;;;;;;;;;;10.30;99.90;;;9.81;100.00;97075.09;5041741;28;1436;-68
2023/11/13 04:36:43;;;;;;;;;;;10.30;99.90;;;9.80;100.00;97069.97;5041389;28;1466;-68
2023/11/13 04:39:11;;;;;;;;;;;10.30;99.90;;;9.79;100.00;97066.56;5041215;28;1942;-67
2023/11/13 04:41:39;;;;;;;;;;;10.30;99.90;;;9.90;100.00;97094.56;5038866;28;1540;-67
2023/11/13 04:44:06;;;;;;;;;;;10.30;99.90;;;9.91;100.00;97090.22;5041254;28;1606;-67
2023/11/13 04:46:33;;;;;;;;;;;10.30;99.90;;;9.92;100.00;97086.69;5042546;28;1562;-67
2023/11/13 04:49:01;;;;;;;;;;;10.30;99.90;;;9.75;100.00;97070.19;5038709;28;1570;-68
2023/11/13 04:51:28;;;;;;;;;;;10.30;99.90;;;9.87;100.00;97081.72;5044293;28;1548;-67
2023/11/13 04:53:54;;;;;;;;;;;10.30;99.90;;;9.80;100.00;97067.38;5042670;28;1626;-67
2023/11/13 04:56:21;;;;;;;;;;;10.40;99.90;;;9.81;100.00;97101.03;5042505;28;1616;-67
2023/11/13 04:58:48;;;;;;;;;;;10.30;99.90;;;9.80;100.00;97073.41;5043211;28;1901;-68
2023/11/13 05:01:17;;;;;;;;;;;10.20;99.90;;;9.76;100.00;97078.81;5038003;28;1560;-68
2023/11/13 05:03:44;;;;;;;;;;;10.30;99.90;;;9.74;100.00;97073.72;5038367;28;1590;-66
2023/11/13 05:06:15;;;;;;;;;;;10.30;99.90;;;9.66;100.00;97081.00;5037585;28;1525;-67
2023/11/13 05:08:44;;;;;;;;;;;10.30;99.90;;;9.73;100.00;97081.56;5043601;28;2205;-68
2023/11/13 05:11:26;;;;;;;;;;;10.20;99.90;;;9.68;100.00;97066.22;5041516;28;1580;-68
2023/11/13 05:13:53;;;;;;;;;;;10.30;99.90;;;9.60;100.00;97081.28;5041088;28;1518;-67
2023/11/13 05:16:21;;;;;;;;;;;10.20;99.90;;;9.72;100.00;97085.06;5041960;28;1409;-67
2023/11/13 05:18:49;;;;;;;;;;;10.30;99.90;;;9.72;100.00;97093.69;5038600;28;1975;-68
2023/11/13 05:21:16;;;;;;;;;;;10.20;99.90;;;9.64;100.00;97090.59;5040604;28;1583;-68
2023/11/13 05:23:43;;;;;;;;;;;10.20;99.90;;;9.61;100.00;97101.13;5039002;28;1621;-68
2023/11/13 05:26:18;;;;;;;;;;;10.10;99.90;;;9.63;100.00;97091.53;5039235;28;1558;-68
2023/11/13 05:28:46;;;;;;;;;;;10.10;99.90;;;9.62;100.00;97090.69;5040706;28;1735;-67
2023/11/13 05:31:14;;;;;;;;;;;10.20;99.90;;;9.59;100.00;97075.25;5040591;28;1556;-68
2023/11/13 05:33:41;;;;;;;;;;;10.20;99.90;;;9.61;100.00;97088.16;5039730;28;1575;-68
2023/11/13 05:36:08;;;;;;;;;;;10.20;99.90;;;9.60;100.00;97096.81;5037765;28;1645;-68
2023/11/13 05:38:35;;;;;;;;;;;10.10;99.90;;;9.56;100.00;97080.59;5039148;28;1985;-67
2023/11/13 05:41:02;;;;;;;;;;;10.10;99.90;;;9.57;100.00;97082.25;5043500;28;1543;-68
2023/11/13 05:43:29;;;;;;;;;;;10.20;99.90;;;9.62;100.00;97087.22;5041756;28;1564;-67
2023/11/13 05:45:56;;;;;;;;;;;10.10;99.90;;;9.54;100.00;97072.06;5040169;28;1609;-68
2023/11/13 05:48:23;;;;;;;;;;;10.10;99.90;;;9.51;100.00;97072.22;5039766;28;1530;-67
2023/11/13 05:50:54;;;;;;;;;;;10.20;99.90;;;9.53;100.00;97072.13;5036978;28;1562;-68
2023/11/13 05:53:21;;;;;;;;;;;10.10;99.90;;;9.50;100.00;97065.31;5036478;28;1567;-67
2023/11/13 05:55:48;;;;;;;;;;;10.10;99.90;;;9.56;100.00;97064.22;5040620;28;1654;-67
2023/11/13 05:58:22;;;;;;;;;;;10.10;99.90;;;9.53;100.00;97062.59;5037445;28;1984;-68
2023/11/13 06:00:49;;;;;;;;;;;10.10;99.90;;;9.53;100.00;97070.34;5041201;28;1547;-68
2023/11/13 06:03:16;;;;;;;;;;;10.10;99.90;;;9.53;100.00;97079.88;5036226;28;1562;-68
2023/11/13 06:05:43;;;;;;;;;;;10.20;99.90;;;9.58;100.00;97078.78;5040103;28;1803;-68
2023/11/13 06:08:10;;;;;;;;;;;10.10;99.90;;;9.67;100.00;97092.19;5036108;28;1767;-68
2023/11/13 06:10:37;;;;;;;;;;;10.10;99.90;;;9.62;100.00;97087.22;5036709;28;1708;-67
2023/11/13 06:13:06;;;;;;;;;;;10.00;99.90;;;9.66;100.00;97087.94;5041009;28;1557;-68
2023/11/13 06:15:36;;;;;;;;;;;10.00;99.90;;;9.66;100.00;97091.38;5038842;28;1514;-68
2023/11/13 06:18:03;;;;;;;;;;;10.00;99.90;;;9.63;100.00;97092.34;5037146;28;1989;-68
2023/11/13 06:20:33;;;;;;;;;;;10.00;99.90;;;9.64;100.00;97080.22;5036940;28;1264;-68
2023/11/13 06:23:02;;;;;;;;;;;10.00;99.90;;;9.56;100.00;97090.97;5033248;28;1440;-68
2023/11/13 06:25:28;;;;;;;;;;;10.00;99.90;;;9.57;100.00;97094.38;5039415;28;1622;-68
2023/11/13 06:27:58;;;;;;;;;;;10.00;99.90;;;9.54;100.00;97095.38;5037667;28;1191;-67
2023/11/13 06:30:27;;;;;;;;;;;10.00;99.90;;;9.54;100.00;97094.53;5037535;28;1090;-67
2023/11/13 06:32:54;;;;;;;;;;;10.00;99.90;;;9.55;100.00;97091.03;5040459;28;1027;-67
2023/11/13 06:35:21;;;;;;;;;;;10.00;99.90;;;9.58;100.00;97085.72;5038533;28;1301;-68
2023/11/13 06:37:48;;;;;;;;;;;10.00;99.90;;;9.55;100.00;97083.25;5038996;28;1006;-67
2023/11/13 06:40:16;;;;;;;;;;;10.00;99.90;;;9.60;100.00;97084.72;5041834;28;1967;-68
2023/11/13 06:42:45;;;;;;;;;;;10.00;99.90;;;9.68;100.00;97094.72;5039631;28;1567;-67
2023/11/13 06:45:14;;;;;;;;;;;10.00;99.90;;;9.59;100.00;97080.44;5045251;28;1545;-67
2023/11/13 06:47:41;;;;;;;;;;;10.00;99.90;;;9.61;100.00;97073.44;5042547;28;1528;-67
2023/11/13 06:50:09;;;;;;;;;;;10.10;99.90;;;9.60;100.00;97076.97;5045236;28;1524;-68
2023/11/13 06:52:36;;;;;;;;;;;10.10;99.90;;;9.58;100.00;97077.94;5030329;28;1583;-68
2023/11/13 06:55:03;;;;;;;;;;;10.10;99.90;;;9.64;100.00;97080.22;5044668;28;1595;-68
2023/11/13 06:57:30;;;;;;;;;;;10.00;99.90;;;9.63;100.00;97083.75;5042987;28;1541;-67
2023/11/13 06:59:57;;;;;;;;;;;10.00;99.90;;;9.73;100.00;97077.22;5045752;28;1988;-68
2023/11/13 07:02:26;;;;;;;;;;;10.00;99.90;;;9.59;100.00;97069.25;5016642;28;5170;-67
2023/11/13 07:04:56;;;;;;;;;;;10.00;99.90;;;9.58;100.00;97077.94;5042951;28;1623;-67
2023/11/13 07:07:24;;;;;;;;;;;9.90;99.90;;;9.50;100.00;97059.31;5043342;28;1685;-67
2023/11/13 07:09:52;;;;;;;;;;;10.00;99.90;;;9.46;100.00;97045.66;5044618;28;1518;-67
2023/11/13 07:12:18;;;;;;;;;;;10.00;99.90;;;9.45;100.00;97046.56;5042403;28;1557;-68
2023/11/13 07:14:45;;;;;;;;;;;10.00;99.90;;;9.54;100.00;97058.28;5043197;28;1591;-68
2023/11/13 07:17:12;;;;;;;;;;;10.00;99.90;;;9.43;100.00;97067.38;5040078;28;1549;-67
2023/11/13 07:19:39;;;;;;;;;;;10.00;99.90;;;9.43;100.00;97067.38;5041479;28;1903;-68
2023/11/13 07:22:06;;;;;;;;;;;9.90;99.90;;;9.54;100.00;97060.84;5039314;28;1472;-68
2023/11/13 07:24:36;;;;;;;;;;;10.00;99.90;;;9.50;100.00;97086.06;5039023;28;1599;-67
2023/11/13 07:27:05;;;;;;;;;;;9.90;99.90;;;9.45;100.00;97059.53;5037285;28;1572;-67
2023/11/13 07:29:36;;;;;;;;;;;10.00;99.90;;;9.41;100.00;97045.88;5039345;28;1503;-68
2023/11/13 07:32:03;;;;;;;;;;;9.90;99.90;;;9.34;100.00;97057.44;5042766;28;1574;-68
2023/11/13 07:34:32;;;;;;;;;;;9.90;99.90;;;9.45;100.00;97069.06;5038059;28;1533;-68
2023/11/13 07:36:59;;;;;;;;;;;9.80;99.90;;;9.37;100.00;97053.84;5042098;28;1606;-68
2023/11/13 07:39:27;;;;;;;;;;;9.80;99.90;;;9.39;100.00;97065.81;5037870;28;1898;-69
2023/11/13 07:41:56;;;;;;;;;;;9.80;99.90;;;9.38;100.00;97068.50;5042691;28;1656;-69
2023/11/13 07:44:23;;;;;;;;;;;9.80;99.90;;;9.31;100.00;97059.34;5040542;28;1539;-67
2023/11/13 07:46:52;;;;;;;;;;;9.80;99.90;;;9.28;100.00;97073.22;5040097;28;1529;-67
2023/11/13 07:49:22;;;;;;;;;;;9.70;99.90;;;9.27;100.00;97076.75;5042782;28;1535;-68
2023/11/13 07:51:49;;;;;;;;;;;9.70;99.90;;;9.24;100.00;97068.25;5039254;28;1382;-67
2023/11/13 07:54:16;;;;;;;;;;;9.70;99.90;;;9.17;100.00;97060.78;5042017;28;1559;-68
2023/11/13 07:56:43;;;;;;;;;;;9.70;99.90;;;9.10;100.00;97055.94;5042792;28;970;-68
2023/11/13 07:59:11;;;;;;;;;;;9.60;99.90;;;8.98;100.00;97042.63;5042163;28;1957;-68
2023/11/13 08:01:41;;;;;;;;;;;9.60;99.90;;;9.00;100.00;97050.34;5035567;28;1595;-67
2023/11/13 08:04:08;;;;;;;;;;;9.50;99.90;;;8.95;100.00;97050.56;5044035;28;1623;-68
2023/11/13 08:06:35;;;;;;;;;;;9.50;99.90;;;8.95;100.00;97032.44;5037002;28;1582;-67
2023/11/13 08:09:08;;;;;;;;;;;9.50;99.90;;;8.93;100.00;97039.44;5040805;28;1745;-67
2023/11/13 08:11:36;;;;;;;;;;;9.50;99.90;;;8.87;100.00;97039.72;5039677;28;1342;-68
2023/11/13 08:14:03;;;;;;;;;;;9.50;99.90;;;8.92;100.00;97027.41;5043218;28;1562;-67
2023/11/13 08:16:33;;;;;;;;;;;9.50;99.90;;;8.86;100.00;97021.66;5038216;28;1615;-67
2023/11/13 08:19:00;;;;;;;;;;;9.40;99.90;;;8.91;100.00;97019.69;5041060;28;1981;-67
2023/11/13 08:21:30;;;;;;;;;;;9.50;99.90;;;8.92;100.00;97011.03;5024712;28;1548;-68
2023/11/13 08:23:57;;;;;;;;;;;9.40;99.90;;;8.95;100.00;97011.72;5040105;28;1771;-68
2023/11/13 08:26:29;;;;;;;;;;;9.40;99.90;;;8.90;100.00;96992.97;5042332;28;1617;-68
2023/11/13 08:28:59;;;;;;;;;;;9.40;99.90;;;8.90;100.00;96992.97;5039812;28;1523;-68
2023/11/13 08:31:27;;;;;;;;;;;9.40;99.90;;;8.96;100.00;96991.84;5038553;28;1618;-68
2023/11/13 08:33:55;;;;;;;;;;;9.50;99.90;;;8.96;100.00;96992.72;5038444;28;1567;-67
2023/11/13 08:36:22;;;;;;;;;;;9.50;99.90;;;8.97;100.00;96996.13;5039932;28;1590;-68
2023/11/13 08:38:50;;;;;;;;;;;9.50;99.90;;;8.97;100.00;96981.44;5040627;28;1987;-67
2023/11/13 08:41:18;;;;;;;;;;;9.50;99.90;;;9.03;100.00;96985.47;5041193;28;1624;-68
2023/11/13 08:43:45;;;;;;;;;;;9.60;99.90;;;9.05;100.00;96975.91;5039958;28;1645;-68
2023/11/13 08:46:12;;;;;;;;;;;9.60;99.90;;;9.11;100.00;96978.22;5040168;28;1520;-67
2023/11/13 08:48:39;;;;;;;;;;;9.60;99.90;;;9.18;100.00;96966.66;5039737;28;1561;-67
2023/11/13 08:51:07;;;;;;;;;;;9.60;99.90;;;9.26;100.00;96976.69;5039790;28;1569;-67
2023/11/13 08:53:42;;;;;;;;;;;9.70;99.90;;;9.35;100.00;96975.38;5038350;28;1539;-67
2023/11/13 08:56:15;;;;;;;;;;;9.80;99.90;;;9.56;100.00;96984.75;5052421;28;1636;-67
2023/11/13 08:58:47;;;;;;;;;;;9.90;99.90;;;9.62;100.00;96971.50;5041626;28;1937;-68
2023/11/13 09:01:15;;;;;;;;;;;10.00;99.90;;;9.78;100.00;96961.22;5036373;28;1571;-67
2023/11/13 09:03:43;;;;;;;;;;;10.20;99.90;;;9.86;100.00;96981.56;5044596;28;1555;-67
2023/11/13 09:06:13;;;;;;;;;;;10.20;99.90;;;9.97;100.00;96974.09;5038647;28;1516;-67
2023/11/13 09:08:43;;;;;;;;;;;10.30;99.90;;;9.98;100.00;96967.97;5041794;28;1572;-66
2023/11/13 09:11:14;;;;;;;;;;;10.40;99.90;;;10.05;100.00;96964.16;5034995;28;1543;-67
2023/11/13 09:13:41;;;;;;;;;;;10.40;99.90;;;10.11;100.00;96959.59;5039281;28;1081;-67
2023/11/13 09:16:10;;;;;;;;;;;10.50;99.90;;;10.15;100.00;96951.59;5037525;28;1353;-67
2023/11/13 09:18:37;;;;;;;;;;;;;;;10.27;100.00;96966.53;5041679;28;1561;-67
2023/11/13 09:21:04;;;;;;;;;;;10.70;99.90;;;10.37;100.00;96968.66;5040665;28;1981;-67
2023/11/13 09:23:31;;;;;;;;;;;10.80;99.90;;;10.48;100.00;96962.94;5037358;28;2244;-67
2023/11/13 09:25:58;;;;;;;;;;;10.80;99.90;;;10.68;100.00;96970.50;5039179;28;1533;-67
2023/11/13 09:28:25;;;;;;;;;;;10.90;99.90;;;10.77;100.00;96971.78;5037738;28;1527;-67
2023/11/13 09:30:52;;;;;;;;;;;11.00;99.90;;;10.83;100.00;96955.88;5036422;28;1555;-67
2023/11/13 09:33:19;;;;;;;;;;;11.20;99.90;;;10.87;100.00;96966.00;5038690;28;1105;-69
2023/11/13 09:35:46;;;;;;;;;;;11.20;99.90;;;10.93;100.00;96943.25;5039509;28;1916;-67
2023/11/13 09:38:13;;;;;;;;;;;11.30;99.90;;;10.96;100.00;96954.28;5039783;28;1461;-67
2023/11/13 09:40:40;;;;;;;;;;;11.30;99.90;;;11.07;100.00;96932.94;5039646;28;1971;-67
2023/11/13 09:43:14;;;;;;;;;;;11.40;99.90;;;11.13;100.00;96937.81;5037896;28;1714;-67
2023/11/13 09:45:46;;;;;;;;;;;11.50;99.90;;;11.11;100.00;96934.47;5036655;28;1539;-67
2023/11/13 09:48:28;;;;;;;;;;;11.50;99.90;;;11.26;100.00;96935.34;5038999;28;1607;-68
2023/11/13 09:50:58;;;;;;;;;;;11.60;99.90;;;11.18;100.00;96917.59;5036885;28;1567;-67
2023/11/13 09:53:33;;;;;;;;;;;11.70;99.90;;;11.24;100.00;96927.66;5054210;28;1556;-67
2023/11/13 09:56:00;;;;;;;;;;;11.70;99.90;;;11.36;100.00;96936.53;5038834;28;1496;-67
2023/11/13 09:58:28;;;;;;;;;;;11.70;99.90;;;11.50;100.00;96930.56;5036951;28;1052;-67
2023/11/13 10:00:55;;;;;;;;;;;11.70;99.90;;;11.52;100.00;96924.34;5040261;28;2044;-68
2023/11/13 10:03:23;;;;;;;;;;;11.80;99.90;;;11.41;100.00;96903.31;5040938;28;1049;-67
2023/11/13 10:05:50;;;;;;;;;;;11.80;99.90;;;11.50;100.00;96921.00;5038033;28;1107;-67
2023/11/13 10:08:17;;;;;;;;;;;11.80;99.90;;;11.46;100.00;96898.69;5034871;28;2174;-67
2023/11/13 10:10:45;;;;;;;;;;;11.90;99.90;;;11.54;100.00;96902.63;5039575;28;1269;-67
2023/11/13 10:13:18;;;;;;;;;;;11.90;99.90;;;11.64;100.00;96889.00;5040431;28;1137;-66
2023/11/13 10:15:45;;;;;;;;;;;12.00;99.90;;;11.67;100.00;96888.00;5037130;28;1084;-68
2023/11/13 10:18:12;;;;;;;;;;;12.00;99.90;;;11.65;100.00;96862.06;5041817;28;1082;-67
2023/11/13 10:20:43;;;;;;;;;;;12.10;99.90;;;11.71;100.00;96905.91;5039690;28;1977;-68
2023/11/13 10:23:09;;;;;;;;;;;12.10;99.90;;;11.80;100.00;96901.94;5041589;28;1783;-67
2023/11/13 10:25:56;;;;;;;;;;;12.20;99.90;;;11.72;100.00;96872.97;5041744;28;1082;-67
2023/11/13 10:28:35;;;;;;;;;;;12.10;99.90;;;11.79;100.00;96894.22;5040317;28;990;-68
2023/11/13 10:31:04;;;;;;;;;;;12.20;99.90;;;11.97;100.00;96889.75;5036376;28;1280;-67
2023/11/13 10:33:31;;;;;;;;;;;12.30;99.90;;;11.83;100.00;96867.97;5038619;28;1074;-68
2023/11/13 10:36:09;;;;;;;;;;;12.30;99.90;;;11.89;100.00;96872.84;5033009;28;1102;-68
2023/11/13 10:38:50;;;;;;;;;;;12.30;99.90;;;11.90;100.00;96868.47;5033033;28;1526;-68
2023/11/13 10:41:22;;;;;;;;;;;12.30;99.90;;;11.84;100.00;96881.81;5034526;28;1918;-67
2023/11/13 10:43:49;;;;;;;;;;;12.30;99.90;;;11.89;100.00;96872.00;5038600;28;1082;-67
2023/11/13 10:46:29;;;;;;;;;;;12.30;99.90;;;11.91;100.00;96867.56;5040407;28;1472;-67
2023/11/13 10:48:59;;;;;;;;;;;12.30;99.90;;;11.87;100.00;96846.09;5037309;28;1006;-67
2023/11/13 10:51:28;;;;;;;;;;;12.30;99.90;;;11.95;100.00;96845.66;5036489;28;1373;-67
2023/11/13 10:53:56;;;;;;;;;;;12.30;99.90;;;11.96;100.00;96862.09;5039336;28;1206;-67
2023/11/13 10:56:25;;;;;;;;;;;12.40;99.90;;;11.97;100.00;96837.75;5037268;28;1493;-68
2023/11/13 10:58:52;;;;;;;;;;;12.40;99.90;;;12.04;100.00;96859.84;5039570;28;1429;-67
2023/11/13 11:01:25;;;;;;;;;;;12.40;99.90;;;12.10;100.00;96836.06;5035106;28;1910;-67
2023/11/13 11:03:58;;;;;;;;;;;12.50;99.90;;;12.08;100.00;96841.34;5038715;28;1222;-67
2023/11/13 11:06:29;;;;;;;;;;;12.40;99.90;;;12.16;100.00;96837.44;5037359;28;1220;-67
2023/11/13 11:08:57;;;;;;;;;;;12.50;99.90;;;12.16;100.00;96832.25;5040786;28;1183;-67
2023/11/13 11:11:25;;;;;;;;;;;12.50;99.90;;;12.21;100.00;96791.19;5039560;28;1563;-69
2023/11/13 11:13:56;;;;;;;;;;;12.60;99.90;;;12.21;100.00;96819.81;5030300;28;1641;-66
2023/11/13 11:16:30;;;;;;;;;;;12.60;99.90;;;12.20;100.00;96798.19;5043997;28;1869;-67
2023/11/13 11:19:13;;;;;;;;;;;12.60;99.90;;;12.23;100.00;96812.75;5040771;28;1606;-66
2023/11/13 11:21:58;;;;;;;;;;;12.60;99.90;;;12.26;100.00;96789.16;5038200;28;2001;-68
2023/11/13 11:25:04;;;;;;;;;;;12.60;99.90;;;12.23;100.00;96797.16;5035120;28;1576;-68
2023/11/13 11:27:40;;;;;;;;;;;12.60;99.90;;;12.26;100.00;96786.53;5039240;28;1535;-68
2023/11/13 11:30:22;;;;;;;;;;;12.60;99.90;;;12.22;100.00;96783.28;5036149;28;1002;-69
2023/11/13 11:32:56;;;;;;;;;;;12.60;99.90;;;12.16;100.00;96806.22;5036167;28;1792;-68